Portada
METAR-TAF:

METAR-TAF

Aeroports :

Aeroport Internacional de Narita

Tòquio Narita, Japó

latitud: 35-46N, longitud: 140-23E, altitud: 41 m

Observació

L'informe es va fer fa 12 minuts, a les 12:30 UTC
Vent 4 kt del Nord-Oest
Temperatura 14°C
Humitat 88%
Pressió 1007 hPa
Visibilitat 10 km o més
Escasses núvols a una alçada de 2000 ft

METAR: RJAA 241230Z 31004KT 9999 FEW020 14/12 Q1007 WS R34L NOSIG RMK 1CU020 A2975

Hora: 21:42 (12:42 UTC)

Pronòstic

L'informe es va fer fa 1 hora i 37 minuts, a les 11:05 UTC
Pronòstic vàlid del 24 a les 12 UTC al 25 a les 18 UTC
Vent 8 kt del Nord-Oest
Visibilitat 10 km o més
Escasses núvols a una alçada de 3000 ft
Evolucionant progressivament
l' 25 a les 03 UTC al 25 a les 06 UTC
Vent 6 kt del Sud
Evolucionant progressivament
l' 25 a les 12 UTC al 25 a les 15 UTC
Vent 5 kt del Nord-Oest

TAF: RJAA 241105Z 2412/2518 32008KT 9999 FEW030 BECMG 2503/2506 18006KT BECMG 2512/2515 32005KT

Observacions i pronòstics meteorològics de més de 4000 aeroports (METAR i TAF).

Les estacions disponibles són els punts grocs i vermells al mapa.

Posi el ratolí al punt desitjat per veure el nom de l'estació.

Feu clic per veure les observacions i els pronòstics meteorològics.

Per canviar el mapa: feu clic els botons verds amb una creu de color negre per apropar; al botó verd amb un guió per allunyar la imatge; o en les fletxes verdes per a mapes adjacents.


METAR-TAF: